Погода Чайно-Хиллзна неделю

Калифорния, США

01 - 07 сентября
  • 01сентября
    Сегодня
    +15°
    +32°
    Ясно и безоблачно
    ВремяПогодаТемператураВлажностьДавлениеВетер, м/сВероятность осадков
    02:00Ясно и безоблачно+17°C76 %733 мм1.5 м/с2 %
    05:00Ясно и безоблачно+16°C84 %732 мм0.4 м/с2 %
    08:00Ясно и безоблачно+18°C75 %733 мм0.7 м/с2 %
    11:00Ясно и безоблачно+26°C42 %734 мм0.4 м/с2 %
    14:00Ясно и безоблачно+32°C25 %733 мм5.6 м/с2 %
    17:00Ясно и безоблачно+30°C29 %732 мм7.3 м/с2 %
    20:00Ясно и безоблачно+23°C49 %732 мм5.1 м/с2 %
    23:00Ясно и безоблачно+19°C64 %733 мм2.6 м/с2 %
  • 02сентября
    Среда
    +16°
    +32°
    Ясно и безоблачно
    ВремяПогодаТемператураВлажностьДавлениеВетер, м/сВероятность осадков
    02:00Ясно и безоблачно+17°C75 %733 мм0.5 м/с2 %
    05:00Ясно и безоблачно+16°C77 %733 мм0.2 м/с2 %
    08:00Ясно и безоблачно+19°C68 %734 мм0.4 м/с2 %
    11:00Ясно и безоблачно+26°C40 %734 мм0.2 м/с2 %
    14:00Ясно и безоблачно+31°C26 %733 мм4.7 м/с2 %
    17:00Ясно и безоблачно+30°C28 %732 мм7.2 м/с2 %
    20:00Ясно и безоблачно+23°C47 %732 мм5.5 м/с2 %
    23:00Ясно и безоблачно+19°C65 %733 мм1.7 м/с2 %
  • 03сентября
    Четверг
    +16°
    +31°
    Ясно и безоблачно
    ВремяПогодаТемператураВлажностьДавлениеВетер, м/сВероятность осадков
    02:00Ясно и безоблачно+17°C75 %732 мм0.4 м/с2 %
    05:00Ясно и безоблачно+16°C78 %732 мм0.0 м/с2 %
    08:00Практически безоблачно+19°C66 %733 мм0.6 м/с2 %
    11:00Ясно и безоблачно+26°C39 %732 мм0.0 м/с2 %
    14:00Ясно и безоблачно+31°C29 %731 мм4.6 м/с2 %
    17:00Ясно и безоблачно+28°C39 %730 мм7.3 м/с2 %
    20:00Ясно и безоблачно+22°C64 %730 мм5.4 м/с2 %
    23:00Ясно и безоблачно+19°C78 %731 мм1.7 м/с2 %
  • 04сентября
    Пятница
    +16°
    +32°
    Ясно и безоблачно
    ВремяПогодаТемператураВлажностьДавлениеВетер, м/сВероятность осадков
    02:00Ясно и безоблачно+17°C84 %731 мм0.6 м/с2 %
    05:00Ясно и безоблачно+16°C87 %731 мм0.0 м/с2 %
    08:00Ясно и безоблачно+19°C80 %732 мм0.6 м/с2 %
    11:00Ясно и безоблачно+26°C45 %732 мм0.0 м/с2 %
    14:00Ясно и безоблачно+31°C27 %731 мм4.4 м/с2 %
    17:00Ясно и безоблачно+30°C33 %731 мм6.6 м/с2 %
    20:00Ясно и безоблачно+23°C60 %731 мм4.9 м/с2 %
    23:00Ясно и безоблачно+19°C71 %732 мм1.5 м/с2 %
  • 05сентября
    Суббота
    +20°
    +34°
    Ясно и безоблачно
    ВремяПогодаТемператураВлажностьДавлениеВетер, м/сВероятность осадков
    02:00Ясно и безоблачно+18°C78 %731 мм0.2 м/с4 %
    05:00Ясно и безоблачно+17°C81 %731 мм0.0 м/с8 %
    08:00Ясно и безоблачно+20°C67 %732 мм0.7 м/с12 %
    11:00Ясно и безоблачно+29°C24 %733 мм0.2 м/с14 %
    14:00Ясно и безоблачно+33°C17 %732 мм3.6 м/с22 %
    17:00Ясно и безоблачно+31°C23 %731 мм5.9 м/с25 %
    20:00Ясно и безоблачно+25°C46 %731 мм5.3 м/с14 %
    23:00Практически безоблачно+23°C55 %732 мм1.3 м/с22 %
  • 06сентября
    Воскресенье
    +18°
    +33°
    Ясно и безоблачно
    ВремяПогодаТемператураВлажностьДавлениеВетер, м/сВероятность осадков
    05:00Небольшая облачность+20°C77 %731 мм0.5 м/с26 %
    11:00Ясно и безоблачно+28°C40 %732 мм0.1 м/с26 %
    17:00Ясно и безоблачно+32°C51 %731 мм4.1 м/с41 %
    23:00Ясно и безоблачно+23°C57 %732 мм1.5 м/с25 %
  • 07сентября
    Понедельник
    +16°
    +33°
    Ясно и безоблачно
    ВремяПогодаТемператураВлажностьДавлениеВетер, м/сВероятность осадков
    05:00Ясно и безоблачно+18°C67 %731 мм1.3 м/с18 %
    11:00Ясно и безоблачно+29°C34 %732 мм2.4 м/с22 %
    17:00Ясно и безоблачно+30°C30 %731 мм4.3 м/с25 %
    23:00Ясно и безоблачно+21°C64 %731 мм1.4 м/с14 %
Мы используем cookies
Соглашаюсь